Time;durP1;ratioP1;P1;durP2;ratioP2;P2;SDS_P1;SDS_P2;PMS_P1;PMS_P2;Temp;Humidity;BMP_temperature;BMP_pressure;BME280_temperature;BME280_humidity;BME280_pressure;Samples;Min_cycle;Max_cycle;Signal;HPM_P1;HPM_P2
2021/01/21 00:01:12;;;;;;;96.70;31.90;;;;;;;-8.27;85.09;100513.94;1830225;77;26596;-64
2021/01/21 00:03:40;;;;;;;96.27;33.97;;;;;;;-8.29;85.18;100507.87;1799618;79;21155;-65
2021/01/21 00:06:09;;;;;;;99.10;35.07;;;;;;;-8.27;85.12;100496.05;1787472;79;21853;-64
2021/01/21 00:08:38;;;;;;;98.50;36.13;;;;;;;-8.22;85.13;100499.67;1755261;79;21214;-65
2021/01/21 00:11:05;;;;;;;76.50;25.97;;;;;;;-8.18;85.09;100493.45;1748298;82;21170;-64
2021/01/21 00:13:33;;;;;;;83.47;30.50;;;;;;;-8.17;85.19;100492.21;1748483;81;21118;-64
2021/01/21 00:16:01;;;;;;;96.47;33.00;;;;;;;-8.13;85.18;100494.10;1748389;82;21602;-64
2021/01/21 00:18:29;;;;;;;55.67;19.30;;;;;;;-8.08;85.10;100487.91;1748550;82;21347;-64
2021/01/21 00:20:57;;;;;;;76.07;27.90;;;;;;;-8.06;85.11;100479.91;1748274;82;21718;-65
2021/01/21 00:23:24;;;;;;;98.30;35.60;;;;;;;-8.05;85.12;100493.14;1748339;82;21183;-63
2021/01/21 00:25:52;;;;;;;84.83;30.37;;;;;;;-8.00;85.09;100494.25;1748309;82;21197;-65
2021/01/21 00:28:20;;;;;;;100.70;33.53;;;;;;;-7.97;85.07;100503.72;1748471;82;21159;-63
2021/01/21 00:30:47;;;;;;;97.30;36.23;;;;;;;-7.94;85.02;100500.88;1748497;82;22295;-64
2021/01/21 00:33:16;;;;;;;99.57;35.73;;;;;;;-7.94;85.02;100490.66;1748384;82;21214;-64
2021/01/21 00:35:44;;;;;;;84.67;30.63;;;;;;;-7.90;84.97;100487.42;1748383;82;21185;-64
2021/01/21 00:38:12;;;;;;;107.90;36.43;;;;;;;-7.91;85.02;100485.69;1786147;80;21152;-64
2021/01/21 00:40:40;;;;;;;78.40;24.77;;;;;;;-7.86;84.91;100484.20;1786318;80;21118;-64
2021/01/21 00:43:07;;;;;;;87.77;29.50;;;;;;;-7.84;84.89;100492.81;1801362;79;21396;-64
2021/01/21 00:45:35;;;;;;;96.17;36.30;;;;;;;-7.83;84.83;100491.13;1801479;79;21174;-64
2021/01/21 00:48:05;;;;;;;96.63;34.17;;;;;;;-7.82;84.82;100484.80;1790588;79;21228;-65
2021/01/21 00:50:33;;;;;;;77.47;25.63;;;;;;;-7.79;84.71;100481.91;1772550;80;21150;-65
2021/01/21 00:53:01;;;;;;;104.33;37.67;;;;;;;-7.82;84.69;100483.53;1720616;83;21193;-64
2021/01/21 00:55:28;;;;;;;86.70;30.37;;;;;;;-7.78;84.66;100488.76;1720710;83;21189;-65
2021/01/21 00:57:56;;;;;;;95.30;32.27;;;;;;;-7.75;84.58;100487.60;1722129;83;21209;-65
2021/01/21 01:00:24;;;;;;;97.00;33.57;;;;;;;-7.75;84.56;100488.88;1688101;83;21674;-65
2021/01/21 01:02:52;;;;;;;97.10;37.63;;;;;;;-7.73;84.49;100473.20;1686799;85;21183;-66
2021/01/21 01:05:22;;;;;;;96.45;26.73;;;;;;;-7.70;84.44;100466.95;1687383;84;21721;-64
2021/01/21 01:07:50;;;;;;;95.03;32.33;;;;;;;-7.67;84.32;100468.35;1713895;83;21394;-64
2021/01/21 01:10:18;;;;;;;74.70;24.03;;;;;;;-7.67;84.30;100465.38;1713792;83;21247;-66
2021/01/21 01:12:46;;;;;;;98.60;32.20;;;;;;;-7.66;84.31;100469.70;1713230;83;21175;-66
2021/01/21 01:15:15;;;;;;;96.20;35.27;;;;;;;-7.66;84.28;100468.80;1713509;83;21755;-66
2021/01/21 01:17:43;;;;;;;72.93;25.03;;;;;;;-7.67;84.23;100473.05;1713202;83;21691;-65
2021/01/21 01:20:21;;;;;;;105.13;37.47;;;;;;;-7.59;84.14;100472.11;1887901;76;26637;-65
2021/01/21 01:22:55;;;;;;;106.80;36.63;;;;;;;-7.63;84.06;100472.79;1858642;77;21178;-64
2021/01/21 01:25:23;;;;;;;91.83;34.93;;;;;;;-7.62;83.95;100475.80;1858550;77;21350;-63
2021/01/21 01:27:51;;;;;;;69.87;24.43;;;;;;;-7.61;83.93;100468.62;1820718;78;21582;-65
2021/01/21 01:30:20;;;;;;;86.13;30.00;;;;;;;-7.61;83.86;100469.89;1820908;78;21190;-64
2021/01/21 01:32:50;;;;;;;68.60;23.60;;;;;;;-7.59;83.79;100460.61;1820860;78;21188;-64
2021/01/21 01:35:19;;;;;;;85.77;32.87;;;;;;;-7.56;83.69;100461.13;1792658;78;21168;-64
2021/01/21 01:37:47;;;;;;;71.70;28.67;;;;;;;-7.56;83.51;100450.48;1788281;80;21180;-64
2021/01/21 01:40:16;;;;;;;92.20;33.60;;;;;;;-7.55;83.53;100457.34;1787947;80;21060;-63
2021/01/21 01:42:46;;;;;;;90.40;33.70;;;;;;;-7.55;83.44;100453.50;1788039;80;21203;-64
2021/01/21 01:45:16;;;;;;;80.72;28.75;;;;;;;-7.53;83.39;100443.34;1788639;80;21204;-63
2021/01/21 01:47:45;;;;;;;78.10;31.43;;;;;;;-7.52;83.27;100447.25;1788763;80;21619;-63
2021/01/21 01:50:18;;;;;;;90.73;33.27;;;;;;;-7.52;83.26;100431.91;1785556;80;21217;-63
2021/01/21 01:52:46;;;;;;;58.27;22.80;;;;;;;-7.52;83.37;100439.58;1747257;80;21204;-65
2021/01/21 01:55:30;;;;;;;73.87;27.20;;;;;;;-7.47;83.40;100426.56;1773088;79;27243;-63
2021/01/21 01:58:06;;;;;;;56.23;22.03;;;;;;;-7.53;83.46;100436.53;1744537;82;21232;-64
2021/01/21 02:00:44;;;;;;;67.00;22.00;;;;;;;-7.52;83.50;100429.34;1703729;80;22676;-64
2021/01/21 02:03:12;;;;;;;85.25;32.53;;;;;;;-7.53;83.46;100424.16;1750074;81;21168;-66
2021/01/21 02:05:42;;;;;;;90.62;33.15;;;;;;;-7.50;83.52;100422.61;1741003;81;21665;-63
2021/01/21 02:08:10;;;;;;;67.30;22.97;;;;;;;-7.48;83.58;100423.93;1693978;83;21256;-63
2021/01/21 02:10:39;;;;;;;77.40;28.17;;;;;;;-7.47;83.60;100417.60;1694228;83;21162;-64
2021/01/21 02:13:29;;;;;;;75.63;27.50;;;;;;;-7.45;83.58;100424.94;1719723;83;21625;-66
2021/01/21 02:16:29;;;;;;;70.50;21.47;;;;;;;-7.42;83.62;100419.94;1720008;83;21253;-64
2021/01/21 02:19:35;;;;;;;64.53;24.20;;;;;;;-7.46;83.59;100410.80;1720292;83;21197;-64
2021/01/21 02:22:33;;;;;;;86.80;32.03;;;;;;;-7.44;83.77;100420.27;1720360;83;21645;-64
2021/01/21 02:25:18;;;;;;;67.47;26.50;;;;;;;-7.45;83.75;100413.42;1719460;83;21684;-65
2021/01/21 02:28:10;;;;;;;80.67;29.87;;;;;;;-7.45;83.94;100409.59;1720275;83;21406;-66
2021/01/21 02:30:58;;;;;;;81.43;27.97;;;;;;;-7.43;84.03;100410.52;1720301;82;21133;-65
2021/01/21 02:33:45;;;;;;;79.90;31.27;;;;;;;-7.41;84.13;100409.28;1720129;83;21229;-64
2021/01/21 02:36:22;;;;;;;83.87;32.63;;;;;;;-7.37;84.20;100411.16;1720466;83;21218;-63
2021/01/21 02:38:52;;;;;;;82.67;29.83;;;;;;;-7.35;84.19;100413.79;1720381;83;21193;-65
2021/01/21 02:41:22;;;;;;;77.83;29.87;;;;;;;-7.32;84.17;100406.22;1718864;83;21213;-64
2021/01/21 02:43:52;;;;;;;78.87;29.80;;;;;;;-7.29;84.08;100403.77;1688737;83;21167;-66
2021/01/21 02:46:22;;;;;;;;;;;;;;;-7.27;84.14;100388.98;1720125;83;21174;-66
2021/01/21 02:48:51;;;;;;;61.27;23.00;;;;;;;-7.25;84.13;100393.72;1717544;83;20712;-65
2021/01/21 02:51:40;;;;;;;57.48;21.65;;;;;;;-7.23;84.25;100386.11;1717640;83;21223;-66
2021/01/21 02:54:34;;;;;;;76.13;29.40;;;;;;;-7.23;84.27;100391.22;1715905;83;21446;-64
2021/01/21 02:57:28;;;;;;;73.30;27.10;;;;;;;-7.21;84.38;100374.25;1693133;83;21223;-64
2021/01/21 02:59:57;;;;;;;70.50;28.33;;;;;;;-7.17;84.35;100378.67;1663625;84;21169;-66
2021/01/21 03:02:27;;;;;;;66.60;24.33;;;;;;;-7.15;84.41;100378.33;1664273;84;21708;-66
2021/01/21 03:04:55;;;;;;;64.70;23.60;;;;;;;-7.13;84.37;100377.98;1689423;84;21688;-65
2021/01/21 03:07:23;;;;;;;76.37;29.50;;;;;;;-7.10;84.34;100370.41;1690807;83;21752;-65
2021/01/21 03:09:53;;;;;;;81.13;31.57;;;;;;;-7.07;84.38;100373.08;1717351;82;21650;-64
2021/01/21 03:12:27;;;;;;;77.43;31.37;;;;;;;-7.05;84.35;100375.29;1718008;83;21178;-65
2021/01/21 03:14:57;;;;;;;55.43;20.30;;;;;;;-7.02;84.38;100372.83;1716641;82;21198;-66
2021/01/21 03:17:28;;;;;;;63.60;25.65;;;;;;;-6.98;84.32;100375.98;1717958;82;21234;-65
2021/01/21 03:19:58;;;;;;;68.10;28.10;;;;;;;-6.95;84.34;100380.34;1716350;83;21897;-66
2021/01/21 03:22:27;;;;;;;64.33;24.43;;;;;;;-6.91;84.25;100390.30;1717863;83;21186;-66
2021/01/21 03:24:55;;;;;;;76.67;30.93;;;;;;;-6.91;84.22;100381.34;1717720;83;21191;-64
2021/01/21 03:30:01;;;;;;;69.47;26.23;;;;;;;-6.79;84.16;100381.78;1775162;79;26848;-64
2021/01/21 03:32:31;;;;;;;76.00;29.02;;;;;;;-6.84;84.22;100373.93;1741613;82;25696;-65
2021/01/21 03:34:59;;;;;;;69.53;27.63;;;;;;;-6.80;84.26;100360.42;1717500;82;21442;-65
2021/01/21 03:37:27;;;;;;;66.90;28.80;;;;;;;-6.76;84.20;100374.23;1689205;83;21190;-65
2021/01/21 03:39:56;;;;;;;57.03;24.23;;;;;;;-6.73;84.26;100373.05;1701533;83;21763;-64
2021/01/21 03:42:32;;;;;;;53.57;20.53;;;;;;;-6.71;84.25;100370.14;1688629;84;21210;-65
2021/01/21 03:45:20;;;;;;;58.07;21.17;;;;;;;-6.66;84.21;100380.14;1689014;84;21164;-65
2021/01/21 03:47:48;;;;;;;43.97;16.67;;;;;;;-6.65;84.20;100383.15;1702267;83;22462;-64
2021/01/21 03:50:19;;;;;;;;;;;;;;;-6.63;84.24;100371.27;1688053;85;21673;-67
2021/01/21 03:52:47;;;;;;;64.57;22.30;;;;;;;-6.61;84.28;100373.91;1645688;87;20267;-65
2021/01/21 03:55:17;;;;;;;65.70;21.45;;;;;;;-6.62;84.34;100369.19;1714628;83;21195;-65
2021/01/21 03:57:47;;;;;;;68.73;25.07;;;;;;;-6.62;84.39;100378.16;1697260;83;21793;-63
2021/01/21 04:00:20;;;;;;;50.37;16.50;;;;;;;-6.62;84.47;100361.51;1719658;82;21242;-63
2021/01/21 04:02:50;;;;;;;59.20;23.07;;;;;;;-6.59;84.58;100362.02;1719875;82;21227;-63
2021/01/21 04:05:22;;;;;;;65.90;22.60;;;;;;;-6.58;84.63;100372.34;1740893;82;21234;-63
2021/01/21 04:07:51;;;;;;;49.27;19.73;;;;;;;-6.59;84.77;100365.45;1706749;83;21637;-65
2021/01/21 04:10:19;;;;;;;67.80;25.53;;;;;;;-6.54;84.78;100363.91;1685694;85;21558;-64
2021/01/21 04:13:06;;;;;;;62.23;22.30;;;;;;;-6.55;84.79;100359.63;1684211;85;21240;-64
2021/01/21 04:15:35;;;;;;;57.53;23.13;;;;;;;-6.52;84.83;100363.12;1678345;85;21195;-64
2021/01/21 04:18:05;;;;;;;59.60;19.73;;;;;;;-6.51;84.87;100374.71;1671843;85;21167;-64
2021/01/21 04:20:35;;;;;;;67.00;19.80;;;;;;;-6.50;84.98;100366.61;1654739;85;21532;-63
2021/01/21 04:23:13;;;;;;;64.00;23.27;;;;;;;-6.45;85.09;100367.64;1845782;76;27229;-62
2021/01/21 04:25:41;;;;;;;73.90;29.87;;;;;;;-6.47;85.12;100361.58;1815599;78;21131;-63
2021/01/21 04:28:09;;;;;;;68.87;26.97;;;;;;;-6.44;85.14;100356.55;1784036;79;22721;-62
2021/01/21 04:30:40;;;;;;;83.92;32.40;;;;;;;-6.43;85.18;100351.91;1815831;79;21103;-63
2021/01/21 04:33:07;;;;;;;62.23;23.60;;;;;;;-6.40;85.14;100355.84;1792111;79;21223;-67
2021/01/21 04:35:37;;;;;;;73.00;29.52;;;;;;;-6.39;85.19;100360.17;1783754;80;21131;-65
2021/01/21 04:38:05;;;;;;;80.80;27.23;;;;;;;-6.37;85.16;100363.66;1783477;80;21194;-64
2021/01/21 04:40:45;;;;;;;76.30;26.43;;;;;;;-6.29;85.16;100369.91;1887760;75;22161;-63
2021/01/21 04:43:31;;;;;;;61.90;22.60;;;;;;;-6.32;85.17;100364.69;1859109;76;21059;-63
2021/01/21 04:46:00;;;;;;;52.80;20.73;;;;;;;-6.30;85.19;100365.62;1801069;79;21823;-64
2021/01/21 04:48:29;;;;;;;58.73;23.20;;;;;;;-6.28;85.15;100360.14;1849339;77;21041;-63
2021/01/21 04:50:58;;;;;;;78.17;29.83;;;;;;;-6.28;85.18;100370.39;1799273;78;21229;-63
2021/01/21 04:53:28;;;;;;;74.33;28.13;;;;;;;-6.29;85.25;100372.47;1848006;77;21602;-64
2021/01/21 04:56:07;;;;;;;87.50;32.47;;;;;;;-6.25;85.18;100358.95;1801045;79;21189;-63
2021/01/21 04:58:55;;;;;;;69.67;26.83;;;;;;;-6.27;85.27;100373.41;1816696;77;21543;-63
2021/01/21 05:01:24;;;;;;;73.60;28.50;;;;;;;-6.23;85.22;100367.56;1774774;80;21191;-63
2021/01/21 05:03:52;;;;;;;68.90;26.27;;;;;;;-6.23;85.27;100354.75;1724532;80;21208;-63
2021/01/21 05:06:31;;;;;;;72.83;29.13;;;;;;;-6.17;85.31;100361.34;1880236;76;23312;-65
2021/01/21 05:09:01;;;;;;;;;;;;;;;-6.20;85.32;100368.94;1744675;82;21194;-64
2021/01/21 05:11:30;;;;;;;60.57;22.50;;;;;;;-6.19;85.36;100357.89;1769293;81;20999;-63
2021/01/21 05:14:16;;;;;;;80.90;30.37;;;;;;;-6.19;85.39;100350.58;1769094;81;21160;-64
2021/01/21 05:17:03;;;;;;;65.03;21.73;;;;;;;-6.19;85.44;100360.84;1769143;81;21211;-65
2021/01/21 05:19:48;;;;;;;53.47;21.73;;;;;;;-6.18;85.49;100363.47;1769313;81;21199;-65
2021/01/21 05:22:35;;;;;;;57.27;19.77;;;;;;;-6.14;85.46;100365.31;1769128;81;21164;-65
2021/01/21 05:25:22;;;;;;;74.57;30.80;;;;;;;-6.13;85.51;100370.89;1748138;81;21241;-64
2021/01/21 05:28:09;;;;;;;74.20;27.87;;;;;;;-6.09;85.46;100376.14;1757212;81;21597;-65
2021/01/21 05:30:48;;;;;;;81.20;32.70;;;;;;;-6.00;85.35;100367.48;1882314;76;26127;-64
2021/01/21 05:33:20;;;;;;;76.67;29.87;;;;;;;-6.05;85.35;100369.89;1793642;78;21205;-64
2021/01/21 05:36:00;;;;;;;84.83;27.20;;;;;;;-5.98;85.39;100368.38;1845392;76;22911;-64
2021/01/21 05:38:31;;;;;;;64.53;24.95;;;;;;;-6.01;85.39;100369.56;1767932;79;21194;-65
2021/01/21 05:41:04;;;;;;;69.50;26.23;;;;;;;-6.00;85.37;100381.59;1763135;79;21704;-65
2021/01/21 05:43:48;;;;;;;85.70;30.43;;;;;;;-5.99;85.39;100371.78;1784889;77;21191;-64
2021/01/21 05:46:26;;;;;;;66.90;23.10;;;;;;;-5.95;85.37;100373.63;1746044;81;21175;-65
2021/01/21 05:48:54;;;;;;;71.13;28.33;;;;;;;-5.94;85.34;100377.92;1770712;81;21171;-64
2021/01/21 05:51:29;;;;;;;62.67;21.83;;;;;;;-5.93;85.34;100377.09;1770999;81;21173;-66
2021/01/21 05:53:59;;;;;;;73.83;28.60;;;;;;;-5.91;85.30;100372.88;1749972;81;21254;-63
2021/01/21 05:56:29;;;;;;;87.70;31.90;;;;;;;-5.85;85.25;100374.34;1769493;81;21218;-64
2021/01/21 05:59:00;;;;;;;64.03;23.00;;;;;;;-5.86;85.13;100373.90;1716201;83;22198;-65
2021/01/21 06:01:28;;;;;;;58.37;22.40;;;;;;;-5.83;85.04;100373.98;1739281;81;21134;-65
2021/01/21 06:03:56;;;;;;;64.47;25.13;;;;;;;-5.82;85.00;100382.16;1778010;80;21189;-63
2021/01/21 06:06:27;;;;;;;73.37;29.43;;;;;;;-5.85;84.99;100365.78;1781566;80;21368;-64
2021/01/21 06:08:56;;;;;;;77.13;27.57;;;;;;;-5.77;84.96;100386.16;1783271;80;21199;-63
2021/01/21 06:11:23;;;;;;;78.33;29.10;;;;;;;-5.77;85.00;100379.33;1783324;80;21186;-64
2021/01/21 06:13:52;;;;;;;68.87;26.60;;;;;;;-5.75;84.92;100382.83;1783367;80;21163;-62
2021/01/21 06:16:19;;;;;;;74.40;25.97;;;;;;;-5.72;84.93;100377.78;1720129;82;21148;-63
2021/01/21 06:18:47;;;;;;;72.37;25.97;;;;;;;-5.68;84.93;100380.05;1715356;82;21926;-65
2021/01/21 06:21:28;;;;;;;82.70;27.93;;;;;;;-5.64;84.78;100374.59;1733289;82;21220;-64
2021/01/21 06:24:02;;;;;;;84.57;28.60;;;;;;;-5.63;84.69;100373.36;1733652;82;21169;-64
2021/01/21 06:26:40;;;;;;;83.50;31.97;;;;;;;-5.59;84.63;100379.06;1738168;80;21205;-63
2021/01/21 06:29:10;;;;;;;61.47;21.00;;;;;;;-5.56;84.53;100380.44;1782288;80;21154;-64
2021/01/21 06:31:38;;;;;;;89.13;32.95;;;;;;;-5.54;84.41;100386.91;1783329;80;22646;-65
2021/01/21 06:34:10;;;;;;;77.33;29.37;;;;;;;-5.54;84.40;100376.64;1782733;80;21112;-64
2021/01/21 06:36:42;;;;;;;84.67;32.00;;;;;;;-5.52;84.48;100381.00;1770041;80;21147;-67
2021/01/21 06:39:14;;;;;;;58.27;18.93;;;;;;;-5.46;84.41;100370.04;1778872;80;21800;-63
2021/01/21 06:41:43;;;;;;;65.57;24.80;;;;;;;-5.45;84.34;100379.50;1776818;80;21630;-65
2021/01/21 06:44:16;;;;;;;57.80;19.87;;;;;;;-5.44;84.39;100368.81;1754096;80;22096;-64
2021/01/21 06:46:46;;;;;;;77.93;30.13;;;;;;;-5.42;84.35;100370.59;1717217;76;21261;-74
2021/01/21 06:49:14;;;;;;;81.67;29.30;;;;;;;-5.38;84.45;100363.46;1719245;83;21206;-73
2021/01/21 06:51:46;;;;;;;69.67;25.87;;;;;;;-5.35;84.25;100364.83;1721163;83;21594;-74
2021/01/21 06:54:14;;;;;;;64.47;23.37;;;;;;;-5.32;84.20;100367.48;1718276;83;21779;-73
2021/01/21 06:56:42;;;;;;;73.37;27.43;;;;;;;-5.27;84.16;100365.95;1718894;83;21443;-73
2021/01/21 06:59:10;;;;;;;71.67;26.30;;;;;;;-5.27;84.07;100358.63;1734169;82;21205;-72
2021/01/21 07:01:42;;;;;;;64.17;23.90;;;;;;;-5.23;84.07;100366.03;1735352;82;21162;-72
2021/01/21 07:04:18;;;;;;;54.90;22.50;;;;;;;-5.21;84.07;100367.81;1733286;82;21194;-72
2021/01/21 07:07:00;;;;;;;77.93;29.40;;;;;;;-5.18;84.06;100366.62;1728565;82;21680;-70
2021/01/21 07:09:27;;;;;;;86.53;31.90;;;;;;;-5.15;84.13;100364.58;1735267;82;21996;-70
2021/01/21 07:11:58;;;;;;;60.13;20.93;;;;;;;-5.09;84.15;100366.89;1734341;82;21139;-74
2021/01/21 07:14:30;;;;;;;65.40;26.40;;;;;;;-5.06;83.98;100363.16;1717372;82;21661;-72
2021/01/21 07:17:02;;;;;;;87.20;34.70;;;;;;;-5.00;83.91;100356.02;1734036;82;21162;-71
2021/01/21 07:19:44;;;;;;;81.80;31.33;;;;;;;-4.96;83.68;100360.43;1734510;82;21182;-73
2021/01/21 07:22:22;;;;;;;;;;;;;;;-4.91;83.63;100361.43;1672792;85;21677;-72
2021/01/21 07:25:00;;;;;;;77.90;29.77;;;;;;;-4.83;83.54;100361.67;1687812;83;20284;-71
2021/01/21 07:27:29;;;;;;;67.30;23.87;;;;;;;-4.80;83.46;100348.91;1651921;85;21165;-72
2021/01/21 07:30:22;;;;;;;76.93;28.10;;;;;;;-4.76;83.23;100349.84;1683876;84;21191;-71
2021/01/21 07:33:16;;;;;;;73.35;22.80;;;;;;;-4.70;83.14;100345.75;1683631;85;21179;-73
2021/01/21 07:35:45;;;;;;;82.20;26.07;;;;;;;-4.68;83.10;100344.52;1655464;86;22215;-72
2021/01/21 07:38:32;;;;;;;72.70;28.03;;;;;;;-4.59;83.09;100343.48;1670388;85;21734;-71
2021/01/21 07:41:01;;;;;;;59.83;20.20;;;;;;;-4.54;82.83;100326.48;1658668;84;22211;-72
2021/01/21 07:43:54;;;;;;;70.07;26.83;;;;;;;-4.48;82.75;100331.80;1757303;79;21239;-70
2021/01/21 07:46:25;;;;;;;69.57;27.97;;;;;;;-4.44;82.70;100335.31;1762896;80;21146;-71
2021/01/21 07:49:28;;;;;;;64.97;24.50;;;;;;;-4.40;82.54;100325.98;1772632;78;21109;-71
2021/01/21 07:52:05;;;;;;;73.10;27.60;;;;;;;-4.32;82.41;100333.50;1762468;81;22231;-71
2021/01/21 07:54:51;;;;;;;76.50;28.87;;;;;;;-4.30;82.36;100333.10;1747754;81;21200;-72
2021/01/21 07:57:22;;;;;;;75.57;30.07;;;;;;;-4.27;82.38;100328.92;1770638;78;21208;-65
2021/01/21 08:00:04;;;;;;;62.73;23.27;;;;;;;-4.21;82.32;100320.48;1731234;81;21186;-66
2021/01/21 08:02:49;;;;;;;85.37;35.50;;;;;;;-4.15;82.14;100319.36;1727932;81;21218;-64
2021/01/21 08:05:19;;;;;;;86.53;31.40;;;;;;;-4.08;82.05;100307.11;1725711;82;21206;-65
2021/01/21 08:10:38;;;;;;;67.67;25.03;;;;;;;-3.92;81.51;100318.65;1815552;78;22813;-64
2021/01/21 08:13:11;;;;;;;62.53;25.07;;;;;;;-3.94;81.73;100311.73;1791962;79;21192;-63
2021/01/21 08:15:40;;;;;;;79.13;29.57;;;;;;;-3.88;81.63;100313.17;1805509;79;21480;-64
2021/01/21 08:18:11;;;;;;;75.20;24.27;;;;;;;-3.84;81.61;100318.86;1778630;80;21179;-65
2021/01/21 08:20:39;;;;;;;62.23;21.97;;;;;;;-3.78;81.32;100308.69;1724202;80;21209;-67
2021/01/21 08:23:10;;;;;;;75.70;29.77;;;;;;;-3.72;81.13;100312.70;1747715;82;21227;-64
2021/01/21 08:25:43;;;;;;;70.27;24.73;;;;;;;-3.66;81.01;100314.14;1778608;80;21147;-66
2021/01/21 08:28:18;;;;;;;55.13;22.73;;;;;;;-3.63;80.67;100314.20;1779305;80;22295;-67
2021/01/21 08:30:47;;;;;;;74.73;29.33;;;;;;;-3.53;80.51;100323.00;1778997;80;21171;-64
2021/01/21 08:33:27;;;;;;;61.83;24.37;;;;;;;-3.44;80.39;100310.77;1735940;81;21193;-65
2021/01/21 08:35:59;;;;;;;70.90;29.07;;;;;;;-3.38;79.91;100316.06;1759383;80;21223;-64
2021/01/21 08:38:35;;;;;;;86.37;32.17;;;;;;;-3.30;80.16;100318.37;1751621;80;21183;-64
2021/01/21 08:41:01;;;;;;;82.07;33.37;;;;;;;-3.19;79.83;100315.61;1747508;82;24222;-65
2021/01/21 08:43:30;;;;;;;81.93;30.63;;;;;;;-3.09;79.30;100317.09;1756829;80;21178;-65
2021/01/21 08:45:58;;;;;;;79.40;32.83;;;;;;;-3.00;78.97;100314.72;1732519;82;21210;-66
2021/01/21 08:48:28;;;;;;;76.37;31.63;;;;;;;-2.90;78.59;100319.20;1757302;80;21186;-66
2021/01/21 08:50:56;;;;;;;74.43;28.10;;;;;;;-2.87;78.23;100319.72;1755010;80;21729;-64
2021/01/21 08:53:28;;;;;;;84.70;33.40;;;;;;;-2.81;78.15;100314.23;1756396;80;21213;-64
2021/01/21 08:55:58;;;;;;;76.12;28.70;;;;;;;-2.69;77.78;100317.90;1755879;80;21200;-66
2021/01/21 08:58:33;;;;;;;65.77;22.30;;;;;;;-2.62;77.62;100309.47;1760083;80;21662;-65
2021/01/21 09:01:12;;;;;;;70.22;28.30;;;;;;;-2.58;77.35;100316.40;1757865;80;21699;-65
2021/01/21 09:03:50;;;;;;;71.82;26.62;;;;;;;-2.49;77.35;100311.42;1755421;80;21162;-66
2021/01/21 09:06:20;;;;;;;61.50;25.70;;;;;;;-2.47;76.98;100304.58;1759290;80;21726;-64
2021/01/21 09:08:54;;;;;;;75.53;30.13;;;;;;;-2.45;77.01;100308.06;1754736;80;21278;-65
2021/01/21 09:11:40;;;;;;;57.88;21.73;;;;;;;-2.40;77.13;100307.72;1751235;81;21639;-64
2021/01/21 09:14:18;;;;;;;57.27;23.32;;;;;;;-2.30;76.83;100306.59;1722759;82;21156;-65
2021/01/21 09:16:49;;;;;;;63.10;23.87;;;;;;;-2.25;76.37;100307.57;1734797;81;21159;-64
2021/01/21 09:19:39;;;;;;;86.37;34.50;;;;;;;-2.14;76.30;100307.31;1734383;82;22263;-65
2021/01/21 09:22:10;;;;;;;80.65;31.87;;;;;;;-1.96;75.96;100305.03;1725787;80;21793;-63
2021/01/21 09:25:03;;;;;;;77.00;29.75;;;;;;;-1.76;75.17;100304.51;1752368;81;21214;-66
2021/01/21 09:27:37;;;;;;;79.03;31.37;;;;;;;-1.56;74.37;100297.94;1752075;81;21162;-66
2021/01/21 09:30:13;;;;;;;47.95;18.90;;;;;;;-1.27;73.81;100290.61;1740136;81;21195;-65
2021/01/21 09:32:42;;;;;;;57.25;20.82;;;;;;;-1.14;72.63;100289.47;1779234;78;21375;-64
2021/01/21 09:35:19;;;;;;;62.50;26.97;;;;;;;-1.06;72.24;100290.41;1742276;81;21176;-65
2021/01/21 09:37:50;;;;;;;51.48;20.02;;;;;;;-0.89;71.72;100288.06;1767813;81;21224;-63
2021/01/21 09:40:22;;;;;;;;;;;;;;;-0.72;70.90;100290.39;1770142;81;21610;-65
2021/01/21 09:42:52;;;;;;;60.98;24.37;;;;;;;-0.60;70.43;100279.75;1746359;81;20260;-65
2021/01/21 09:45:20;;;;;;;59.03;22.00;;;;;;;-0.47;70.33;100279.03;1767344;81;21320;-64
2021/01/21 09:47:50;;;;;;;70.83;29.65;;;;;;;-0.16;69.51;100283.19;1767270;81;21160;-64
2021/01/21 09:50:19;;;;;;;71.55;30.92;;;;;;;0.28;68.20;100295.23;1749966;81;21184;-65
2021/01/21 09:52:48;;;;;;;75.87;34.15;;;;;;;0.60;66.89;100274.71;1741484;80;21579;-66
2021/01/21 09:55:16;;;;;;;67.72;28.67;;;;;;;0.73;66.36;100278.22;1729537;82;21200;-66
2021/01/21 09:57:44;;;;;;;72.78;27.48;;;;;;;0.91;66.01;100279.19;1720381;82;21750;-65
2021/01/21 10:00:13;;;;;;;78.47;33.42;;;;;;;0.87;65.74;100282.62;1725951;81;21670;-65
2021/01/21 10:02:42;;;;;;;65.72;28.70;;;;;;;0.90;65.90;100280.92;1713258;81;21193;-64
2021/01/21 10:05:13;;;;;;;70.78;32.53;;;;;;;0.83;65.17;100273.54;1753547;81;21183;-64
2021/01/21 10:07:41;;;;;;;76.13;30.87;;;;;;;0.98;65.25;100274.02;1737796;81;21225;-66
2021/01/21 10:10:09;;;;;;;70.35;30.15;;;;;;;0.98;64.79;100269.27;1736896;82;21391;-67
2021/01/21 10:12:38;;;;;;;81.82;32.60;;;;;;;1.10;64.62;100275.80;1736095;80;21180;-68
2021/01/21 10:15:08;;;;;;;72.75;31.73;;;;;;;1.37;63.91;100265.95;1743039;80;21227;-67
2021/01/21 10:17:40;;;;;;;77.67;29.80;;;;;;;1.61;62.57;100266.45;1736248;81;21893;-68
2021/01/21 10:20:11;;;;;;;70.20;31.12;;;;;;;1.80;62.00;100254.34;1759754;80;21191;-68
2021/01/21 10:22:39;;;;;;;64.03;28.00;;;;;;;2.16;61.49;100248.69;1748108;81;21385;-68
2021/01/21 10:25:08;;;;;;;68.50;30.77;;;;;;;2.38;60.17;100246.95;1766245;80;21183;-67
2021/01/21 10:27:38;;;;;;;66.12;28.90;;;;;;;3.11;58.13;100235.44;1763607;81;21222;-68
2021/01/21 10:30:09;;;;;;;74.37;33.18;;;;;;;3.11;58.13;100235.44;1759341;81;21216;-67
2021/01/21 10:32:39;;;;;;;71.05;32.42;;;;;;;3.33;57.36;100231.41;1753199;80;21220;-68
2021/01/21 10:35:10;;;;;;;64.82;30.43;;;;;;;3.58;57.07;100231.67;1751885;80;21813;-67
2021/01/21 10:37:41;;;;;;;66.75;29.87;;;;;;;3.76;55.68;100224.17;1688585;80;21644;-70
2021/01/21 10:40:10;;;;;;;66.77;30.35;;;;;;;3.85;55.19;100220.64;1660335;84;21179;-71
2021/01/21 10:42:38;;;;;;;62.08;28.60;;;;;;;3.97;54.93;100222.27;1682883;84;21185;-71
2021/01/21 10:45:10;;;;;;;56.88;26.10;;;;;;;3.70;55.07;100226.81;1693539;84;21237;-70
2021/01/21 10:47:39;;;;;;;;;;;;;;;3.21;56.49;100230.19;1702622;84;22282;-71
2021/01/21 10:50:07;;;;;;;70.03;30.92;;;;;;;2.78;57.68;100221.27;1699963;83;20291;-70
2021/01/21 10:52:35;;;;;;;70.00;31.82;;;;;;;2.92;57.98;100216.86;1686473;84;21215;-72
2021/01/21 10:55:05;;;;;;;65.08;29.30;;;;;;;3.14;57.40;100218.50;1706898;82;21183;-71
2021/01/21 10:57:33;;;;;;;64.25;30.48;;;;;;;3.19;56.67;100218.92;1704766;82;21670;-70
2021/01/21 11:00:00;;;;;;;62.90;30.48;;;;;;;3.37;56.61;100203.19;1694955;84;21394;-69
2021/01/21 11:02:29;;;;;;;64.97;31.17;;;;;;;3.65;56.57;100206.45;1698102;84;21202;-71
2021/01/21 11:04:57;;;;;;;64.82;29.50;;;;;;;3.91;55.93;100199.75;1713456;82;21536;-74
2021/01/21 11:07:26;;;;;;;59.40;28.07;;;;;;;3.97;54.91;100202.28;1715632;82;22179;-71
2021/01/21 11:09:53;;;;;;;60.58;28.83;;;;;;;4.17;56.11;100192.13;1716873;81;21166;-71
2021/01/21 11:12:21;;;;;;;56.00;27.93;;;;;;;4.46;54.42;100201.38;1711469;82;22257;-71
2021/01/21 11:14:51;;;;;;;61.98;29.80;;;;;;;4.60;53.83;100205.99;1720113;82;21211;-71
2021/01/21 11:17:21;;;;;;;62.60;29.30;;;;;;;4.72;53.79;100198.04;1702806;84;21191;-72
2021/01/21 11:19:49;;;;;;;57.58;26.02;;;;;;;4.79;52.58;100190.56;1714918;82;21214;-71
2021/01/21 11:22:16;;;;;;;56.10;26.62;;;;;;;4.56;52.83;100193.89;1702019;83;21167;-72
2021/01/21 11:24:44;;;;;;;59.30;24.85;;;;;;;4.22;53.49;100185.12;1703686;83;21378;-72
2021/01/21 11:27:12;;;;;;;62.55;29.30;;;;;;;4.06;53.84;100195.27;1744719;81;21222;-72
2021/01/21 11:29:40;;;;;;;59.05;27.62;;;;;;;4.01;54.53;100189.25;1746401;81;21634;-72
2021/01/21 11:32:08;;;;;;;61.05;28.17;;;;;;;4.11;54.68;100183.91;1764845;81;21154;-71
2021/01/21 11:34:35;;;;;;;64.85;30.60;;;;;;;4.31;53.83;100181.11;1756778;81;21565;-71
2021/01/21 11:37:07;;;;;;;70.28;32.50;;;;;;;4.60;53.55;100172.08;1757866;80;21381;-73
2021/01/21 11:39:35;;;;;;;64.27;29.95;;;;;;;4.87;52.73;100176.55;1752350;80;21588;-75
2021/01/21 11:42:06;;;;;;;65.40;27.80;;;;;;;5.04;52.30;100178.51;1697517;83;21179;-74